sensor_id;sensor_type;location;lat;lon;timestamp;pressure;altitude;pressure_sealevel;temperature;humidity
67931;BME280;63902;52.000;5.954;2023-05-07T00:00:49;101251.00;;;13.62;98.39
67931;BME280;63902;52.000;5.954;2023-05-07T00:01:51;101245.81;;;13.59;98.25
67931;BME280;63902;52.000;5.954;2023-05-07T00:02:51;101244.09;;;13.58;98.43
67931;BME280;63902;52.000;5.954;2023-05-07T00:03:52;101252.72;;;13.63;98.38
67931;BME280;63902;52.000;5.954;2023-05-07T00:04:52;101254.69;;;13.60;98.50
67931;BME280;63902;52.000;5.954;2023-05-07T00:05:53;101258.16;;;13.62;98.23
67931;BME280;63902;52.000;5.954;2023-05-07T00:06:53;101259.94;;;13.61;98.43
67931;BME280;63902;52.000;5.954;2023-05-07T00:07:54;101259.19;;;13.58;98.61
67931;BME280;63902;52.000;5.954;2023-05-07T00:08:54;101259.06;;;13.61;98.71
67931;BME280;63902;52.000;5.954;2023-05-07T00:09:55;101265.44;;;13.58;98.26
67931;BME280;63902;52.000;5.954;2023-05-07T00:10:55;101259.16;;;13.59;98.36
67931;BME280;63902;52.000;5.954;2023-05-07T00:11:56;101257.44;;;13.58;98.78
67931;BME280;63902;52.000;5.954;2023-05-07T00:12:56;101261.00;;;13.57;98.71
67931;BME280;63902;52.000;5.954;2023-05-07T00:13:57;101252.16;;;13.57;98.61
67931;BME280;63902;52.000;5.954;2023-05-07T00:14:57;101254.88;;;13.55;98.53
67931;BME280;63902;52.000;5.954;2023-05-07T00:15:58;101250.44;;;13.56;98.90
67931;BME280;63902;52.000;5.954;2023-05-07T00:17:00;101235.84;;;13.44;98.63
67931;BME280;63902;52.000;5.954;2023-05-07T00:18:00;101249.69;;;13.52;98.68
67931;BME280;63902;52.000;5.954;2023-05-07T00:19:01;101248.84;;;13.52;98.72
67931;BME280;63902;52.000;5.954;2023-05-07T00:20:01;101255.91;;;13.53;98.75
67931;BME280;63902;52.000;5.954;2023-05-07T00:21:02;101261.31;;;13.51;98.88
67931;BME280;63902;52.000;5.954;2023-05-07T00:22:03;101251.75;;;13.47;98.94
67931;BME280;63902;52.000;5.954;2023-05-07T00:23:03;101260.50;;;13.49;98.89
67931;BME280;63902;52.000;5.954;2023-05-07T00:24:04;101272.09;;;13.48;99.19
67931;BME280;63902;52.000;5.954;2023-05-07T00:25:05;101265.97;;;13.46;98.96
67931;BME280;63902;52.000;5.954;2023-05-07T00:26:06;101256.59;;;13.37;99.07
67931;BME280;63902;52.000;5.954;2023-05-07T00:27:06;101258.22;;;13.41;99.16
67931;BME280;63902;52.000;5.954;2023-05-07T00:28:07;101256.56;;;13.39;99.42
67931;BME280;63902;52.000;5.954;2023-05-07T00:29:08;101256.59;;;13.37;99.39
67931;BME280;63902;52.000;5.954;2023-05-07T00:30:09;101259.28;;;13.37;99.49
67931;BME280;63902;52.000;5.954;2023-05-07T00:31:09;101264.66;;;13.36;99.68
67931;BME280;63902;52.000;5.954;2023-05-07T00:32:11;101260.28;;;13.35;99.48
67931;BME280;63902;52.000;5.954;2023-05-07T00:33:12;101257.69;;;13.33;99.56
67931;BME280;63902;52.000;5.954;2023-05-07T00:34:12;101260.38;;;13.33;99.56
67931;BME280;63902;52.000;5.954;2023-05-07T00:35:13;101257.69;;;13.33;99.76
67931;BME280;63902;52.000;5.954;2023-05-07T00:36:13;101254.09;;;13.34;99.85
67931;BME280;63902;52.000;5.954;2023-05-07T00:37:14;101246.16;;;13.33;99.53
67931;BME280;63902;52.000;5.954;2023-05-07T00:38:14;101245.38;;;13.31;99.78
67931;BME280;63902;52.000;5.954;2023-05-07T00:39:15;101248.66;;;13.36;99.18
67931;BME280;63902;52.000;5.954;2023-05-07T00:40:15;101241.63;;;13.35;99.51
67931;BME280;63902;52.000;5.954;2023-05-07T00:41:16;101240.75;;;13.34;99.27
67931;BME280;63902;52.000;5.954;2023-05-07T00:42:16;101241.63;;;13.35;99.64
67931;BME280;63902;52.000;5.954;2023-05-07T00:43:17;101244.22;;;13.36;99.22
67931;BME280;63902;52.000;5.954;2023-05-07T00:44:17;101246.09;;;13.34;99.40
67931;BME280;63902;52.000;5.954;2023-05-07T00:45:18;101232.06;;;13.31;99.25
67931;BME280;63902;52.000;5.954;2023-05-07T00:46:20;101241.78;;;13.32;99.02
67931;BME280;63902;52.000;5.954;2023-05-07T00:47:22;101243.56;;;13.31;99.46
67931;BME280;63902;52.000;5.954;2023-05-07T00:48:22;101243.72;;;13.28;99.37
67931;BME280;63902;52.000;5.954;2023-05-07T00:49:26;101242.78;;;13.29;99.42
67931;BME280;63902;52.000;5.954;2023-05-07T00:50:32;101240.25;;;13.26;99.29
67931;BME280;63902;52.000;5.954;2023-05-07T00:51:33;101225.50;;;13.17;99.49
67931;BME280;63902;52.000;5.954;2023-05-07T00:52:34;101245.53;;;13.28;99.22
67931;BME280;63902;52.000;5.954;2023-05-07T00:53:34;101238.50;;;13.25;99.38
67931;BME280;63902;52.000;5.954;2023-05-07T00:54:35;101235.88;;;13.24;99.26
67931;BME280;63902;52.000;5.954;2023-05-07T00:55:36;101218.66;;;13.12;99.64
67931;BME280;63902;52.000;5.954;2023-05-07T00:56:37;101237.75;;;13.21;99.58
67931;BME280;63902;52.000;5.954;2023-05-07T00:57:39;101235.09;;;13.21;99.59
67931;BME280;63902;52.000;5.954;2023-05-07T00:58:40;101223.72;;;13.18;99.32
67931;BME280;63902;52.000;5.954;2023-05-07T00:59:41;101228.31;;;13.14;99.77
67931;BME280;63902;52.000;5.954;2023-05-07T01:00:41;101230.00;;;13.17;99.76
67931;BME280;63902;52.000;5.954;2023-05-07T01:01:42;101228.31;;;13.14;99.52
67931;BME280;63902;52.000;5.954;2023-05-07T01:02:44;101232.84;;;13.12;99.93
67931;BME280;63902;52.000;5.954;2023-05-07T01:03:44;101227.72;;;13.08;99.99
67931;BME280;63902;52.000;5.954;2023-05-07T01:04:45;101204.25;;;12.97;99.80
67931;BME280;63902;52.000;5.954;2023-05-07T01:05:45;101224.34;;;13.04;100.00
67931;BME280;63902;52.000;5.954;2023-05-07T01:06:48;101229.53;;;13.07;99.98
67931;BME280;63902;52.000;5.954;2023-05-07T01:07:50;101223.41;;;13.05;100.00
67931;BME280;63902;52.000;5.954;2023-05-07T01:08:51;101226.13;;;13.04;100.00
67931;BME280;63902;52.000;5.954;2023-05-07T01:09:52;101231.47;;;13.04;100.00
67931;BME280;63902;52.000;5.954;2023-05-07T01:10:54;101231.53;;;13.02;100.00
67931;BME280;63902;52.000;5.954;2023-05-07T01:11:55;101223.66;;;12.99;100.00
67931;BME280;63902;52.000;5.954;2023-05-07T01:12:57;101220.22;;;12.97;100.00
67931;BME280;63902;52.000;5.954;2023-05-07T01:13:59;101225.41;;;13.00;100.00
67931;BME280;63902;52.000;5.954;2023-05-07T01:15:00;101223.66;;;12.99;100.00
67931;BME280;63902;52.000;5.954;2023-05-07T01:16:01;101223.66;;;12.99;99.89
67931;BME280;63902;52.000;5.954;2023-05-07T01:17:01;101226.34;;;12.99;100.00
67931;BME280;63902;52.000;5.954;2023-05-07T01:18:04;101223.81;;;12.96;100.00
67931;BME280;63902;52.000;5.954;2023-05-07T01:19:04;101221.22;;;12.94;100.00
67931;BME280;63902;52.000;5.954;2023-05-07T01:20:06;101222.09;;;12.95;100.00
67931;BME280;63902;52.000;5.954;2023-05-07T01:21:10;101223.03;;;12.94;100.00
67931;BME280;63902;52.000;5.954;2023-05-07T01:22:11;101223.94;;;12.93;100.00
67931;BME280;63902;52.000;5.954;2023-05-07T01:23:13;101220.47;;;12.91;100.00
67931;BME280;63902;52.000;5.954;2023-05-07T01:24:14;101217.03;;;12.89;100.00
67931;BME280;63902;52.000;5.954;2023-05-07T01:25:14;101198.16;;;12.74;100.00
67931;BME280;63902;52.000;5.954;2023-05-07T01:26:15;101217.19;;;12.86;100.00
67931;BME280;63902;52.000;5.954;2023-05-07T01:27:15;101216.38;;;12.84;100.00
67931;BME280;63902;52.000;5.954;2023-05-07T01:28:16;101213.84;;;12.81;100.00
67931;BME280;63902;52.000;5.954;2023-05-07T01:29:16;101213.00;;;12.80;100.00
67931;BME280;63902;52.000;5.954;2023-05-07T01:30:18;101213.00;;;12.80;100.00
67931;BME280;63902;52.000;5.954;2023-05-07T01:31:21;101207.00;;;12.75;100.00
67931;BME280;63902;52.000;5.954;2023-05-07T01:32:29;101219.19;;;12.81;100.00
67931;BME280;63902;52.000;5.954;2023-05-07T01:33:34;101213.00;;;12.80;100.00
67931;BME280;63902;52.000;5.954;2023-05-07T01:34:37;101203.59;;;12.71;100.00
67931;BME280;63902;52.000;5.954;2023-05-07T01:35:41;101221.03;;;12.79;100.00
67931;BME280;63902;52.000;5.954;2023-05-07T01:36:43;101219.31;;;12.77;100.00
67931;BME280;63902;52.000;5.954;2023-05-07T01:37:45;101222.03;;;12.76;100.00
67931;BME280;63902;52.000;5.954;2023-05-07T01:38:47;101216.72;;;12.76;100.00
67931;BME280;63902;52.000;5.954;2023-05-07T01:39:48;101219.44;;;12.74;100.00
67931;BME280;63902;52.000;5.954;2023-05-07T01:40:48;101216.00;;;12.72;100.00
67931;BME280;63902;52.000;5.954;2023-05-07T01:41:49;101212.38;;;12.73;100.00
67931;BME280;63902;52.000;5.954;2023-05-07T01:42:50;101224.78;;;12.74;100.00
67931;BME280;63902;52.000;5.954;2023-05-07T01:43:52;101222.16;;;12.73;100.00
67931;BME280;63902;52.000;5.954;2023-05-07T01:44:52;101214.19;;;12.73;100.00
67931;BME280;63902;52.000;5.954;2023-05-07T01:45:53;101216.00;;;12.72;100.00
67931;BME280;63902;52.000;5.954;2023-05-07T01:46:54;101210.56;;;12.74;100.00
67931;BME280;63902;52.000;5.954;2023-05-07T01:47:55;101207.38;;;12.66;100.00
67931;BME280;63902;52.000;5.954;2023-05-07T01:48:55;101214.13;;;12.74;100.00
67931;BME280;63902;52.000;5.954;2023-05-07T01:49:56;101208.06;;;12.71;100.00
67931;BME280;63902;52.000;5.954;2023-05-07T01:50:58;101219.44;;;12.74;100.00
67931;BME280;63902;52.000;5.954;2023-05-07T01:51:59;101212.31;;;12.75;100.00
67931;BME280;63902;52.000;5.954;2023-05-07T01:53:01;101215.84;;;12.75;100.00
67931;BME280;63902;52.000;5.954;2023-05-07T01:54:03;101212.47;;;12.72;100.00
67931;BME280;63902;52.000;5.954;2023-05-07T01:55:05;101207.06;;;12.73;100.00
67931;BME280;63902;52.000;5.954;2023-05-07T01:56:06;101206.19;;;12.73;100.00
67931;BME280;63902;52.000;5.954;2023-05-07T01:57:07;101210.66;;;12.72;100.00
67931;BME280;63902;52.000;5.954;2023-05-07T01:58:07;101213.38;;;12.71;100.00
67931;BME280;63902;52.000;5.954;2023-05-07T01:59:08;101211.56;;;12.71;100.00
67931;BME280;63902;52.000;5.954;2023-05-07T02:00:09;101218.69;;;12.71;100.00
67931;BME280;63902;52.000;5.954;2023-05-07T02:01:09;101220.50;;;12.70;100.00
67931;BME280;63902;52.000;5.954;2023-05-07T02:02:10;101217.84;;;12.70;100.00
67931;BME280;63902;52.000;5.954;2023-05-07T02:03:10;101220.50;;;12.70;100.00
67931;BME280;63902;52.000;5.954;2023-05-07T02:04:11;101222.31;;;12.70;100.00
67931;BME280;63902;52.000;5.954;2023-05-07T02:05:11;101220.50;;;12.70;100.00
67931;BME280;63902;52.000;5.954;2023-05-07T02:06:12;101222.31;;;12.70;100.00
67931;BME280;63902;52.000;5.954;2023-05-07T02:07:12;101223.16;;;12.70;100.00
67931;BME280;63902;52.000;5.954;2023-05-07T02:08:13;101225.81;;;12.70;100.00
67931;BME280;63902;52.000;5.954;2023-05-07T02:09:15;101225.81;;;12.70;100.00
67931;BME280;63902;52.000;5.954;2023-05-07T02:10:15;101224.88;;;12.71;100.00
67931;BME280;63902;52.000;5.954;2023-05-07T02:11:16;101226.63;;;12.72;100.00
67931;BME280;63902;52.000;5.954;2023-05-07T02:12:16;101224.88;;;12.71;100.00
67931;BME280;63902;52.000;5.954;2023-05-07T02:13:17;101229.28;;;12.72;100.00
67931;BME280;63902;52.000;5.954;2023-05-07T02:14:17;101231.09;;;12.72;100.00
67931;BME280;63902;52.000;5.954;2023-05-07T02:15:18;101224.09;;;12.69;100.00
67931;BME280;63902;52.000;5.954;2023-05-07T02:16:18;101221.44;;;12.69;100.00
67931;BME280;63902;52.000;5.954;2023-05-07T02:17:19;101220.59;;;12.69;100.00
67931;BME280;63902;52.000;5.954;2023-05-07T02:18:19;101219.56;;;12.71;100.00
67931;BME280;63902;52.000;5.954;2023-05-07T02:19:20;101220.44;;;12.72;100.00
67931;BME280;63902;52.000;5.954;2023-05-07T02:20:20;101232.00;;;12.71;100.00
67931;BME280;63902;52.000;5.954;2023-05-07T02:21:21;101221.59;;;12.66;100.00
67931;BME280;63902;52.000;5.954;2023-05-07T02:22:21;101223.16;;;12.70;100.00
67931;BME280;63902;52.000;5.954;2023-05-07T02:23:22;101224.88;;;12.71;100.00
67931;BME280;63902;52.000;5.954;2023-05-07T02:24:23;101217.84;;;12.70;100.00
67931;BME280;63902;52.000;5.954;2023-05-07T02:25:24;101221.44;;;12.69;100.00
67931;BME280;63902;52.000;5.954;2023-05-07T02:26:25;101216.13;;;12.69;100.00
67931;BME280;63902;52.000;5.954;2023-05-07T02:27:25;101228.50;;;12.70;100.00
67931;BME280;63902;52.000;5.954;2023-05-07T02:28:26;101226.78;;;12.69;100.00
67931;BME280;63902;52.000;5.954;2023-05-07T02:29:26;101221.31;;;12.72;100.00
67931;BME280;63902;52.000;5.954;2023-05-07T02:30:26;101220.44;;;12.72;100.00
67931;BME280;63902;52.000;5.954;2023-05-07T02:31:27;101225.81;;;12.70;100.00
67931;BME280;63902;52.000;5.954;2023-05-07T02:32:27;101221.34;;;12.71;100.00
67931;BME280;63902;52.000;5.954;2023-05-07T02:33:28;101221.34;;;12.71;100.00
67931;BME280;63902;52.000;5.954;2023-05-07T02:34:28;101210.00;;;12.67;100.00
67931;BME280;63902;52.000;5.954;2023-05-07T02:35:29;101216.13;;;12.69;100.00
67931;BME280;63902;52.000;5.954;2023-05-07T02:36:29;101215.19;;;12.70;100.00
67931;BME280;63902;52.000;5.954;2023-05-07T02:37:30;101212.53;;;12.70;100.00
67931;BME280;63902;52.000;5.954;2023-05-07T02:38:30;101212.53;;;12.70;100.00
67931;BME280;63902;52.000;5.954;2023-05-07T02:39:32;101207.19;;;12.70;100.00
67931;BME280;63902;52.000;5.954;2023-05-07T02:40:33;101208.91;;;12.71;100.00
67931;BME280;63902;52.000;5.954;2023-05-07T02:41:33;101206.19;;;12.73;100.00
67931;BME280;63902;52.000;5.954;2023-05-07T02:42:34;101207.13;;;12.72;100.00
67931;BME280;63902;52.000;5.954;2023-05-07T02:43:34;101203.69;;;12.70;100.00
67931;BME280;63902;52.000;5.954;2023-05-07T02:44:35;101205.38;;;12.71;100.00
67931;BME280;63902;52.000;5.954;2023-05-07T02:45:35;101208.06;;;12.71;100.00
67931;BME280;63902;52.000;5.954;2023-05-07T02:46:36;101205.47;;;12.69;100.00
67931;BME280;63902;52.000;5.954;2023-05-07T02:47:36;101210.84;;;12.68;100.00
67931;BME280;63902;52.000;5.954;2023-05-07T02:48:37;101206.38;;;12.68;100.00
67931;BME280;63902;52.000;5.954;2023-05-07T02:49:37;101212.59;;;12.69;100.00
67931;BME280;63902;52.000;5.954;2023-05-07T02:50:37;101214.38;;;12.68;100.00
67931;BME280;63902;52.000;5.954;2023-05-07T02:51:38;101217.03;;;12.68;100.00
67931;BME280;63902;52.000;5.954;2023-05-07T02:52:38;101211.78;;;12.67;100.00
67931;BME280;63902;52.000;5.954;2023-05-07T02:53:39;101220.63;;;12.67;100.00
67931;BME280;63902;52.000;5.954;2023-05-07T02:54:41;101207.66;;;12.60;100.00
67931;BME280;63902;52.000;5.954;2023-05-07T02:55:41;101221.59;;;12.66;100.00
67931;BME280;63902;52.000;5.954;2023-05-07T02:56:42;101206.00;;;12.57;100.00
67931;BME280;63902;52.000;5.954;2023-05-07T02:57:42;101222.50;;;12.65;100.00
67931;BME280;63902;52.000;5.954;2023-05-07T02:58:43;101222.56;;;12.64;100.00
67931;BME280;63902;52.000;5.954;2023-05-07T02:59:43;101226.16;;;12.63;100.00
67931;BME280;63902;52.000;5.954;2023-05-07T03:00:44;101230.47;;;12.65;100.00
67931;BME280;63902;52.000;5.954;2023-05-07T03:01:44;101228.75;;;12.64;100.00
67931;BME280;63902;52.000;5.954;2023-05-07T03:02:45;101227.03;;;12.63;100.00
67931;BME280;63902;52.000;5.954;2023-05-07T03:03:45;101232.38;;;12.63;100.00
67931;BME280;63902;52.000;5.954;2023-05-07T03:04:46;101232.38;;;12.63;100.00
67931;BME280;63902;52.000;5.954;2023-05-07T03:05:46;101236.75;;;12.64;100.00
67931;BME280;63902;52.000;5.954;2023-05-07T03:06:47;101228.75;;;12.64;100.00
67931;BME280;63902;52.000;5.954;2023-05-07T03:07:47;101230.47;;;12.65;100.00
67931;BME280;63902;52.000;5.954;2023-05-07T03:08:48;101228.69;;;12.66;100.00
67931;BME280;63902;52.000;5.954;2023-05-07T03:09:50;101229.56;;;12.66;100.00
67931;BME280;63902;52.000;5.954;2023-05-07T03:10:50;101231.28;;;12.67;100.00
67931;BME280;63902;52.000;5.954;2023-05-07T03:11:51;101223.31;;;12.67;100.00
67931;BME280;63902;52.000;5.954;2023-05-07T03:12:52;101230.34;;;12.68;100.00
67931;BME280;63902;52.000;5.954;2023-05-07T03:13:52;101228.63;;;12.67;100.00
67931;BME280;63902;52.000;5.954;2023-05-07T03:14:53;101233.09;;;12.67;100.00
67931;BME280;63902;52.000;5.954;2023-05-07T03:15:53;101227.69;;;12.68;100.00
67931;BME280;63902;52.000;5.954;2023-05-07T03:16:54;101229.47;;;12.68;100.00
67931;BME280;63902;52.000;5.954;2023-05-07T03:17:54;101223.31;;;12.67;100.00
67931;BME280;63902;52.000;5.954;2023-05-07T03:18:55;101222.56;;;12.64;100.00
67931;BME280;63902;52.000;5.954;2023-05-07T03:19:55;101221.59;;;12.66;100.00
67931;BME280;63902;52.000;5.954;2023-05-07T03:20:56;101207.88;;;12.55;100.00
67931;BME280;63902;52.000;5.954;2023-05-07T03:21:57;101225.16;;;12.65;100.00
67931;BME280;63902;52.000;5.954;2023-05-07T03:22:57;101220.78;;;12.64;100.00
67931;BME280;63902;52.000;5.954;2023-05-07T03:23:58;101212.13;;;12.59;100.00
67931;BME280;63902;52.000;5.954;2023-05-07T03:25:00;101212.94;;;12.61;100.00
67931;BME280;63902;52.000;5.954;2023-05-07T03:26:00;101211.06;;;12.63;100.00
67931;BME280;63902;52.000;5.954;2023-05-07T03:27:01;101226.09;;;12.64;100.00
67931;BME280;63902;52.000;5.954;2023-05-07T03:28:01;101215.50;;;12.63;100.00
67931;BME280;63902;52.000;5.954;2023-05-07T03:29:02;101216.41;;;12.63;100.00
67931;BME280;63902;52.000;5.954;2023-05-07T03:30:03;101214.66;;;12.62;100.00
67931;BME280;63902;52.000;5.954;2023-05-07T03:31:03;101217.25;;;12.64;100.00
67931;BME280;63902;52.000;5.954;2023-05-07T03:32:04;101210.41;;;12.58;100.00
67931;BME280;63902;52.000;5.954;2023-05-07T03:33:05;101205.09;;;12.58;100.00
67931;BME280;63902;52.000;5.954;2023-05-07T03:34:05;101212.13;;;12.59;100.00
67931;BME280;63902;52.000;5.954;2023-05-07T03:35:06;101193.19;;;12.46;100.00
67931;BME280;63902;52.000;5.954;2023-05-07T03:36:07;101211.31;;;12.57;100.00
67931;BME280;63902;52.000;5.954;2023-05-07T03:37:08;101209.72;;;12.53;100.00
67931;BME280;63902;52.000;5.954;2023-05-07T03:38:08;101214.91;;;12.56;100.00
67931;BME280;63902;52.000;5.954;2023-05-07T03:39:09;101211.31;;;12.57;100.00
67931;BME280;63902;52.000;5.954;2023-05-07T03:40:11;101207.75;;;12.58;100.00
67931;BME280;63902;52.000;5.954;2023-05-07T03:41:12;101215.72;;;12.58;100.00
67931;BME280;63902;52.000;5.954;2023-05-07T03:42:12;101215.63;;;12.60;100.00
67931;BME280;63902;52.000;5.954;2023-05-07T03:43:13;101209.53;;;12.58;100.00
67931;BME280;63902;52.000;5.954;2023-05-07T03:44:13;101215.72;;;12.58;100.00
67931;BME280;63902;52.000;5.954;2023-05-07T03:45:14;101207.94;;;12.53;100.00
67931;BME280;63902;52.000;5.954;2023-05-07T03:46:14;101211.31;;;12.57;100.00
67931;BME280;63902;52.000;5.954;2023-05-07T03:47:15;101216.63;;;12.57;100.00
67931;BME280;63902;52.000;5.954;2023-05-07T03:48:15;101211.31;;;12.57;100.00
67931;BME280;63902;52.000;5.954;2023-05-07T03:49:16;101215.78;;;12.57;100.00
67931;BME280;63902;52.000;5.954;2023-05-07T03:50:16;101219.38;;;12.56;100.00
67931;BME280;63902;52.000;5.954;2023-05-07T03:51:17;101212.38;;;12.53;100.00
67931;BME280;63902;52.000;5.954;2023-05-07T03:52:17;101202.78;;;12.49;100.00
67931;BME280;63902;52.000;5.954;2023-05-07T03:53:18;101215.06;;;12.53;100.00
67931;BME280;63902;52.000;5.954;2023-05-07T03:54:18;101219.44;;;12.54;100.00
67931;BME280;63902;52.000;5.954;2023-05-07T03:55:21;101216.00;;;12.52;100.00
67931;BME280;63902;52.000;5.954;2023-05-07T03:56:21;101226.56;;;12.53;100.00
67931;BME280;63902;52.000;5.954;2023-05-07T03:57:22;101222.09;;;12.54;100.00
67931;BME280;63902;52.000;5.954;2023-05-07T03:58:22;101215.06;;;12.53;100.00
67931;BME280;63902;52.000;5.954;2023-05-07T03:59:23;101227.38;;;12.56;100.00
67931;BME280;63902;52.000;5.954;2023-05-07T04:00:23;101217.00;;;12.49;100.00
67931;BME280;63902;52.000;5.954;2023-05-07T04:01:24;101218.53;;;12.55;100.00
67931;BME280;63902;52.000;5.954;2023-05-07T04:02:24;101226.41;;;12.57;100.00
67931;BME280;63902;52.000;5.954;2023-05-07T04:03:25;101228.22;;;12.56;100.00
67931;BME280;63902;52.000;5.954;2023-05-07T04:04:25;101230.03;;;12.56;100.00
67931;BME280;63902;52.000;5.954;2023-05-07T04:05:26;101224.88;;;12.51;100.00
67931;BME280;63902;52.000;5.954;2023-05-07T04:06:26;101226.50;;;12.55;100.00
67931;BME280;63902;52.000;5.954;2023-05-07T04:07:27;101233.53;;;12.56;100.00
67931;BME280;63902;52.000;5.954;2023-05-07T04:08:27;101230.03;;;12.56;100.00
67931;BME280;63902;52.000;5.954;2023-05-07T04:09:28;101234.41;;;12.57;100.00
67931;BME280;63902;52.000;5.954;2023-05-07T04:10:30;101230.88;;;12.56;100.00
67931;BME280;63902;52.000;5.954;2023-05-07T04:11:31;101225.69;;;12.53;100.00
67931;BME280;63902;52.000;5.954;2023-05-07T04:12:31;101234.50;;;12.55;100.00
67931;BME280;63902;52.000;5.954;2023-05-07T04:13:32;101226.63;;;12.52;100.00
67931;BME280;63902;52.000;5.954;2023-05-07T04:14:32;101233.53;;;12.56;100.00
67931;BME280;63902;52.000;5.954;2023-05-07T04:15:33;101232.59;;;12.57;100.00
67931;BME280;63902;52.000;5.954;2023-05-07T04:16:34;101237.91;;;12.57;100.00
67931;BME280;63902;52.000;5.954;2023-05-07T04:17:35;101229.94;;;12.57;100.00
67931;BME280;63902;52.000;5.954;2023-05-07T04:18:35;101236.19;;;12.56;100.00
67931;BME280;63902;52.000;5.954;2023-05-07T04:19:36;101235.25;;;12.57;100.00
67931;BME280;63902;52.000;5.954;2023-05-07T04:20:36;101226.56;;;12.53;100.00
67931;BME280;63902;52.000;5.954;2023-05-07T04:21:37;101235.25;;;12.57;100.00
67931;BME280;63902;52.000;5.954;2023-05-07T04:22:37;101232.59;;;12.57;100.00
67931;BME280;63902;52.000;5.954;2023-05-07T04:23:38;101236.94;;;12.60;100.00
67931;BME280;63902;52.000;5.954;2023-05-07T04:24:38;101232.53;;;12.59;100.00
67931;BME280;63902;52.000;5.954;2023-05-07T04:25:40;101239.59;;;12.60;100.00
67931;BME280;63902;52.000;5.954;2023-05-07T04:26:41;101231.81;;;12.55;100.00
67931;BME280;63902;52.000;5.954;2023-05-07T04:27:41;101236.06;;;12.59;100.00
67931;BME280;63902;52.000;5.954;2023-05-07T04:28:42;101235.34;;;12.56;100.00
67931;BME280;63902;52.000;5.954;2023-05-07T04:29:42;101231.00;;;12.53;100.00
67931;BME280;63902;52.000;5.954;2023-05-07T04:30:43;101245.78;;;12.60;100.00
67931;BME280;63902;52.000;5.954;2023-05-07T04:31:43;101247.56;;;12.60;100.00
67931;BME280;63902;52.000;5.954;2023-05-07T04:32:44;101243.09;;;12.60;100.00
67931;BME280;63902;52.000;5.954;2023-05-07T04:33:44;101245.72;;;12.62;100.00
67931;BME280;63902;52.000;5.954;2023-05-07T04:34:44;101245.72;;;12.62;100.00
67931;BME280;63902;52.000;5.954;2023-05-07T04:35:45;101239.53;;;12.61;100.00
67931;BME280;63902;52.000;5.954;2023-05-07T04:36:45;101241.25;;;12.62;100.00
67931;BME280;63902;52.000;5.954;2023-05-07T04:37:46;101241.25;;;12.62;100.00
67931;BME280;63902;52.000;5.954;2023-05-07T04:38:46;101243.00;;;12.63;100.00
67931;BME280;63902;52.000;5.954;2023-05-07T04:39:47;101246.53;;;12.64;100.00
67931;BME280;63902;52.000;5.954;2023-05-07T04:40:49;101243.88;;;12.64;100.00
67931;BME280;63902;52.000;5.954;2023-05-07T04:41:49;101229.09;;;12.57;100.00
67931;BME280;63902;52.000;5.954;2023-05-07T04:42:50;101247.38;;;12.64;100.00
67931;BME280;63902;52.000;5.954;2023-05-07T04:43:50;101229.03;;;12.58;100.00
67931;BME280;63902;52.000;5.954;2023-05-07T04:44:52;101242.06;;;12.64;100.00
67931;BME280;63902;52.000;5.954;2023-05-07T04:45:53;101250.06;;;12.64;100.00
67931;BME280;63902;52.000;5.954;2023-05-07T04:46:54;101242.94;;;12.65;100.00
67931;BME280;63902;52.000;5.954;2023-05-07T04:47:54;101248.19;;;12.66;100.00
67931;BME280;63902;52.000;5.954;2023-05-07T04:48:54;101249.09;;;12.65;100.00
67931;BME280;63902;52.000;5.954;2023-05-07T04:49:55;101243.78;;;12.65;100.00
67931;BME280;63902;52.000;5.954;2023-05-07T04:50:55;101242.06;;;12.64;100.00
67931;BME280;63902;52.000;5.954;2023-05-07T04:51:56;101254.38;;;12.67;100.00
67931;BME280;63902;52.000;5.954;2023-05-07T04:52:56;101246.44;;;12.65;100.00
67931;BME280;63902;52.000;5.954;2023-05-07T04:53:57;101249.91;;;12.67;100.00
67931;BME280;63902;52.000;5.954;2023-05-07T04:54:59;101246.31;;;12.68;100.00
67931;BME280;63902;52.000;5.954;2023-05-07T04:56:00;101249.88;;;12.69;100.00
67931;BME280;63902;52.000;5.954;2023-05-07T04:57:03;101248.97;;;12.68;100.00
67931;BME280;63902;52.000;5.954;2023-05-07T04:58:03;101236.66;;;12.66;100.00
67931;BME280;63902;52.000;5.954;2023-05-07T04:59:04;101248.06;;;12.69;100.00
67931;BME280;63902;52.000;5.954;2023-05-07T05:00:06;101248.91;;;12.70;100.00
67931;BME280;63902;52.000;5.954;2023-05-07T05:01:06;101255.09;;;12.70;100.00
67931;BME280;63902;52.000;5.954;2023-05-07T05:02:07;101252.38;;;12.72;100.00
67931;BME280;63902;52.000;5.954;2023-05-07T05:03:07;101258.56;;;12.72;100.00
67931;BME280;63902;52.000;5.954;2023-05-07T05:04:08;101254.97;;;12.73;100.00
67931;BME280;63902;52.000;5.954;2023-05-07T05:05:08;101256.72;;;12.74;100.00
67931;BME280;63902;52.000;5.954;2023-05-07T05:06:10;101258.44;;;12.75;100.00
67931;BME280;63902;52.000;5.954;2023-05-07T05:07:11;101258.44;;;12.75;100.00
67931;BME280;63902;52.000;5.954;2023-05-07T05:08:11;101260.25;;;12.75;100.00
67931;BME280;63902;52.000;5.954;2023-05-07T05:09:11;101249.78;;;12.70;100.00
67931;BME280;63902;52.000;5.954;2023-05-07T05:10:12;101259.38;;;12.74;100.00
67931;BME280;63902;52.000;5.954;2023-05-07T05:11:14;101253.91;;;12.77;100.00
67931;BME280;63902;52.000;5.954;2023-05-07T05:12:14;101260.16;;;12.76;100.00
67931;BME280;63902;52.000;5.954;2023-05-07T05:13:15;101258.44;;;12.75;100.00
67931;BME280;63902;52.000;5.954;2023-05-07T05:14:15;101270.03;;;12.74;100.00
67931;BME280;63902;52.000;5.954;2023-05-07T05:15:16;101259.38;;;12.74;100.00